createdAt,value
2022-12-16T00:02:41.226Z,9.00
2022-12-16T00:05:44.636Z,10.30
2022-12-16T00:08:49.337Z,10.30
2022-12-16T00:11:52.334Z,9.97
2022-12-16T00:14:55.729Z,9.77
2022-12-16T00:17:58.715Z,9.53
2022-12-16T00:21:01.702Z,11.00
2022-12-16T00:24:06.284Z,10.17
2022-12-16T00:27:09.325Z,10.60
2022-12-16T00:30:13.424Z,10.30
2022-12-16T00:33:16.420Z,11.50
2022-12-16T00:36:19.386Z,10.03
2022-12-16T00:39:23.936Z,11.07
2022-12-16T00:42:26.890Z,9.40
2022-12-16T00:45:30.322Z,10.23
2022-12-16T00:48:33.345Z,10.30
2022-12-16T00:51:36.648Z,9.47
2022-12-16T00:54:40.957Z,10.30
2022-12-16T00:57:44.275Z,9.53
2022-12-16T01:00:47.323Z,10.00
2022-12-16T01:03:50.385Z,10.33
2022-12-16T01:06:54.568Z,10.33
2022-12-16T01:09:59.753Z,9.07
2022-12-16T01:13:02.825Z,9.27
2022-12-16T01:16:06.292Z,10.00
2022-12-16T01:19:09.344Z,9.83
2022-12-16T01:22:12.713Z,10.53
2022-12-16T01:25:17.711Z,10.47
2022-12-16T01:28:20.703Z,9.50
2022-12-16T01:31:24.308Z,9.67
2022-12-16T01:34:27.361Z,10.53
2022-12-16T01:37:30.379Z,10.30
2022-12-16T01:40:34.715Z,10.83
2022-12-16T01:43:39.613Z,9.30
2022-12-16T01:46:43.883Z,9.70
2022-12-16T01:49:51.303Z,9.93
2022-12-16T01:52:58.551Z,10.07
2022-12-16T01:56:04.238Z,9.67
2022-12-16T01:59:08.259Z,10.73
2022-12-16T02:02:13.105Z,9.97
2022-12-16T02:05:23.159Z,10.30
2022-12-16T02:08:26.213Z,9.17
2022-12-16T02:11:46.505Z,9.47
2022-12-16T02:15:08.607Z,10.27
2022-12-16T02:18:20.538Z,9.53
2022-12-16T02:21:40.227Z,9.73
2022-12-16T02:25:11.216Z,9.77
2022-12-16T02:28:26.928Z,10.27
2022-12-16T02:31:36.443Z,9.23
2022-12-16T02:34:48.488Z,9.80
2022-12-16T02:38:02.686Z,9.13
2022-12-16T02:41:08.221Z,10.23
2022-12-16T02:44:12.900Z,9.57
2022-12-16T02:47:17.210Z,9.63
2022-12-16T02:50:22.960Z,9.57
2022-12-16T02:53:26.087Z,9.50
2022-12-16T02:56:38.573Z,9.20
2022-12-16T02:59:49.260Z,8.97
2022-12-16T03:03:00.392Z,9.33
2022-12-16T03:06:05.787Z,10.80
2022-12-16T03:09:12.090Z,9.53
2022-12-16T03:12:19.090Z,10.10
2022-12-16T03:15:26.596Z,9.80
2022-12-16T03:18:31.965Z,10.07
2022-12-16T03:21:39.503Z,9.57
2022-12-16T03:24:43.182Z,9.67
2022-12-16T03:27:54.442Z,10.17
2022-12-16T03:31:06.289Z,10.13
2022-12-16T03:34:18.136Z,10.37
2022-12-16T03:37:25.240Z,8.80
2022-12-16T03:40:29.857Z,9.93
2022-12-16T03:43:33.344Z,10.07
2022-12-16T03:46:36.796Z,10.03
2022-12-16T03:49:41.658Z,9.93
2022-12-16T03:52:44.618Z,10.50
2022-12-16T03:55:47.628Z,9.20
2022-12-16T03:58:50.619Z,10.27
2022-12-16T04:01:53.711Z,10.47
2022-12-16T04:04:58.103Z,10.60
2022-12-16T04:08:02.183Z,9.37
2022-12-16T04:11:23.168Z,10.70
2022-12-16T04:14:43.558Z,9.80
2022-12-16T04:18:09.814Z,11.10
2022-12-16T04:21:28.114Z,10.07
2022-12-16T04:24:32.415Z,10.07
2022-12-16T04:27:35.399Z,9.33
2022-12-16T04:30:38.443Z,9.80
2022-12-16T04:33:58.982Z,9.40
2022-12-16T04:37:21.789Z,9.97
2022-12-16T04:40:42.203Z,10.03
2022-12-16T04:44:02.709Z,9.97
2022-12-16T04:47:23.280Z,9.53
2022-12-16T04:50:43.770Z,9.27
2022-12-16T04:54:05.559Z,9.87
2022-12-16T04:57:31.412Z,9.77
2022-12-16T05:00:52.079Z,9.33
2022-12-16T05:04:20.838Z,9.30
2022-12-16T05:07:41.397Z,9.13
2022-12-16T05:11:03.282Z,9.73
2022-12-16T05:14:24.217Z,9.30
2022-12-16T05:17:44.621Z,9.77
2022-12-16T05:21:01.561Z,9.93
2022-12-16T05:24:22.698Z,9.57
2022-12-16T05:27:44.974Z,9.90
2022-12-16T05:31:05.461Z,9.47
2022-12-16T05:34:27.595Z,10.17
2022-12-16T05:37:48.258Z,9.97
2022-12-16T05:41:08.646Z,9.67
2022-12-16T05:44:30.392Z,11.10
2022-12-16T05:47:50.780Z,10.27
2022-12-16T05:51:11.181Z,10.40
2022-12-16T05:54:31.533Z,11.13
2022-12-16T05:57:52.050Z,12.57
2022-12-16T06:01:13.868Z,13.23
2022-12-16T06:04:34.401Z,11.73
2022-12-16T06:07:55.009Z,11.37
2022-12-16T06:11:15.493Z,10.93
2022-12-16T06:14:35.837Z,10.47
2022-12-16T06:18:00.851Z,11.13
2022-12-16T06:21:21.393Z,11.00
2022-12-16T06:24:41.847Z,10.70
2022-12-16T06:28:07.260Z,10.60
2022-12-16T06:31:28.496Z,10.57
2022-12-16T06:34:50.328Z,9.93
2022-12-16T06:38:10.875Z,9.57
2022-12-16T06:41:31.530Z,9.83
2022-12-16T06:44:51.915Z,10.50
2022-12-16T06:48:12.259Z,10.80
2022-12-16T06:51:34.103Z,10.43
2022-12-16T06:54:54.610Z,10.53
2022-12-16T06:58:16.424Z,9.97
2022-12-16T07:01:37.115Z,10.20
2022-12-16T07:04:57.951Z,9.97
2022-12-16T07:08:19.837Z,11.07
2022-12-16T07:11:36.822Z,11.10
2022-12-16T07:14:57.604Z,11.43
2022-12-16T07:18:18.167Z,10.90
2022-12-16T07:21:38.711Z,9.80
2022-12-16T07:25:00.768Z,11.03
2022-12-16T07:28:21.189Z,10.60
2022-12-16T07:31:41.913Z,11.10
2022-12-16T07:35:02.492Z,10.33
2022-12-16T07:38:23.098Z,11.20
2022-12-16T07:41:45.001Z,10.93
2022-12-16T07:45:05.616Z,10.97
2022-12-16T07:48:26.614Z,10.63
2022-12-16T07:51:46.887Z,10.53
2022-12-16T07:55:07.327Z,11.17
2022-12-16T07:58:30.554Z,11.13
2022-12-16T08:01:51.214Z,10.80
2022-12-16T08:05:12.095Z,10.20
2022-12-16T08:08:32.588Z,10.57
2022-12-16T08:11:53.254Z,12.57
2022-12-16T08:15:16.183Z,10.43
2022-12-16T08:18:36.559Z,10.30
2022-12-16T08:21:56.866Z,11.73
2022-12-16T08:25:17.429Z,11.27
2022-12-16T08:28:37.924Z,12.00
2022-12-16T08:31:59.834Z,11.70
2022-12-16T08:35:21.341Z,11.53
2022-12-16T08:38:41.874Z,12.03
2022-12-16T08:42:02.232Z,12.43
2022-12-16T08:45:23.608Z,11.83
2022-12-16T08:48:45.482Z,11.20
2022-12-16T08:52:06.084Z,11.50
2022-12-16T08:55:29.614Z,11.13
2022-12-16T08:58:50.534Z,11.40
2022-12-16T09:02:12.275Z,12.20
2022-12-16T09:05:34.431Z,12.97
2022-12-16T09:08:54.871Z,12.40
2022-12-16T09:12:16.530Z,12.33
2022-12-16T09:15:37.151Z,12.60
2022-12-16T09:18:57.535Z,11.30
2022-12-16T09:22:19.161Z,12.90
2022-12-16T09:25:39.711Z,12.07
2022-12-16T09:29:00.099Z,12.80
2022-12-16T09:32:20.709Z,10.80
2022-12-16T09:35:37.683Z,13.37
2022-12-16T09:38:59.805Z,13.17
2022-12-16T09:42:28.270Z,12.77
2022-12-16T09:45:56.944Z,11.70
2022-12-16T09:49:24.931Z,11.67
2022-12-16T09:52:48.375Z,13.63
2022-12-16T09:56:10.878Z,12.47
2022-12-16T09:59:35.759Z,12.70
2022-12-16T10:02:59.332Z,12.40
2022-12-16T10:06:29.729Z,12.53
2022-12-16T10:10:02.789Z,12.80
2022-12-16T10:13:31.664Z,12.97
2022-12-16T10:16:59.482Z,13.80
2022-12-16T10:20:24.842Z,12.77
2022-12-16T10:23:50.925Z,12.23
2022-12-16T10:27:19.479Z,12.83
2022-12-16T10:30:41.458Z,12.33
2022-12-16T10:34:11.641Z,12.77
2022-12-16T10:37:34.772Z,12.77
2022-12-16T10:40:55.755Z,13.63
2022-12-16T10:44:17.725Z,13.13
2022-12-16T10:47:39.646Z,12.87
2022-12-16T10:51:00.120Z,11.90
2022-12-16T10:54:34.616Z,12.97
2022-12-16T10:58:04.262Z,12.90
2022-12-16T11:01:41.507Z,12.70
2022-12-16T11:05:04.232Z,11.70
2022-12-16T11:08:42.960Z,12.37
2022-12-16T11:12:03.521Z,11.50
2022-12-16T11:15:42.312Z,11.97
2022-12-16T11:19:08.473Z,11.97
2022-12-16T11:22:34.641Z,13.10
2022-12-16T11:25:54.314Z,13.13
2022-12-16T11:29:33.202Z,12.83
2022-12-16T11:32:55.096Z,12.97
2022-12-16T11:36:25.148Z,11.97
2022-12-16T11:39:53.009Z,13.00
2022-12-16T11:43:17.035Z,13.17
2022-12-16T11:46:47.192Z,12.43
2022-12-16T11:50:09.744Z,13.00
2022-12-16T11:53:44.956Z,11.97
2022-12-16T11:57:08.776Z,12.77
2022-12-16T12:00:33.896Z,13.80
2022-12-16T12:04:01.059Z,12.87
2022-12-16T12:07:45.249Z,13.40
2022-12-16T12:11:23.022Z,12.57
2022-12-16T12:14:53.750Z,13.20
2022-12-16T12:18:21.304Z,13.33
2022-12-16T12:21:43.950Z,13.40
2022-12-16T12:25:23.524Z,13.77
2022-12-16T12:29:08.269Z,13.07
2022-12-16T12:32:41.532Z,12.60
2022-12-16T12:36:14.430Z,13.53
2022-12-16T12:39:41.488Z,12.20
2022-12-16T12:43:06.482Z,13.53
2022-12-16T12:46:51.667Z,13.83
2022-12-16T12:50:16.778Z,12.87
2022-12-16T12:53:48.607Z,13.23
2022-12-16T12:57:11.372Z,13.60
2022-12-16T13:00:36.681Z,13.03
2022-12-16T13:04:01.675Z,13.87
2022-12-16T13:07:24.848Z,12.57
2022-12-16T13:10:52.304Z,12.73
2022-12-16T13:14:12.902Z,13.77
2022-12-16T13:17:33.519Z,15.13
2022-12-16T13:20:56.665Z,13.23
2022-12-16T13:24:39.635Z,13.50
2022-12-16T13:28:13.143Z,13.27
2022-12-16T13:31:34.583Z,14.43
2022-12-16T13:34:54.943Z,14.57
2022-12-16T13:38:17.814Z,15.33
2022-12-16T13:42:13.579Z,14.73
2022-12-16T13:45:50.346Z,16.30
2022-12-16T13:49:11.066Z,15.53
2022-12-16T13:52:35.437Z,13.33
2022-12-16T13:56:01.310Z,14.87
2022-12-16T13:59:30.101Z,14.63
2022-12-16T14:02:54.927Z,13.93
2022-12-16T14:06:18.621Z,14.63
2022-12-16T14:09:48.188Z,14.23
2022-12-16T14:13:20.228Z,14.17
2022-12-16T14:16:52.928Z,13.63
2022-12-16T14:20:19.826Z,14.83
2022-12-16T14:23:58.687Z,14.30
2022-12-16T14:27:24.696Z,13.57
2022-12-16T14:30:45.381Z,14.83
2022-12-16T14:34:12.470Z,14.43
2022-12-16T14:37:34.966Z,13.73
2022-12-16T14:40:55.930Z,14.10
2022-12-16T14:44:16.578Z,14.03
2022-12-16T14:47:38.946Z,14.37
2022-12-16T14:51:00.844Z,15.13
2022-12-16T14:54:42.815Z,15.03
2022-12-16T14:58:03.226Z,14.47
2022-12-16T15:01:32.496Z,14.67
2022-12-16T15:05:02.117Z,14.27
2022-12-16T15:08:24.891Z,16.17
2022-12-16T15:11:46.256Z,15.23
2022-12-16T15:15:07.119Z,14.23
2022-12-16T15:18:36.884Z,15.23
2022-12-16T15:21:57.354Z,15.97
2022-12-16T15:25:19.581Z,15.00
2022-12-16T15:28:45.711Z,15.33
2022-12-16T15:32:12.545Z,15.23
2022-12-16T15:35:43.162Z,14.20
2022-12-16T15:39:11.901Z,15.47
2022-12-16T15:42:40.202Z,15.37
2022-12-16T15:46:08.013Z,16.23
2022-12-16T15:49:37.875Z,20.57
2022-12-16T15:53:00.962Z,18.80
2022-12-16T15:56:20.555Z,18.53
2022-12-16T15:59:45.285Z,18.47
2022-12-16T16:03:08.085Z,17.17
2022-12-16T16:06:36.250Z,16.67
2022-12-16T16:09:58.041Z,16.90
2022-12-16T16:13:18.402Z,15.97
2022-12-16T16:16:40.045Z,16.43
2022-12-16T16:20:14.983Z,16.50
2022-12-16T16:23:35.896Z,16.53
2022-12-16T16:26:56.952Z,15.10
2022-12-16T16:30:18.543Z,15.57
2022-12-16T16:33:45.736Z,16.03
2022-12-16T16:37:11.063Z,15.83
2022-12-16T16:40:37.017Z,16.00
2022-12-16T16:43:57.446Z,15.90
2022-12-16T16:47:19.368Z,15.87
2022-12-16T16:50:41.157Z,17.90
2022-12-16T16:54:02.061Z,17.03
2022-12-16T16:57:22.532Z,16.73
2022-12-16T17:00:43.498Z,16.67
2022-12-16T17:04:04.153Z,16.10
2022-12-16T17:07:26.230Z,16.17
2022-12-16T17:10:46.671Z,17.03
2022-12-16T17:14:07.181Z,17.43
2022-12-16T17:17:28.815Z,18.00
2022-12-16T17:20:49.436Z,17.33
2022-12-16T17:24:11.195Z,16.70
2022-12-16T17:27:33.073Z,16.77
2022-12-16T17:30:56.626Z,17.03
2022-12-16T17:34:22.993Z,17.50
2022-12-16T17:37:44.742Z,18.13
2022-12-16T17:41:11.683Z,17.27
2022-12-16T17:44:32.402Z,18.10
2022-12-16T17:47:52.908Z,17.87
2022-12-16T17:51:13.338Z,18.07
2022-12-16T17:54:33.830Z,17.50
2022-12-16T17:57:55.440Z,16.20
2022-12-16T18:01:19.600Z,17.50
2022-12-16T18:04:54.940Z,17.63
2022-12-16T18:08:15.422Z,17.30
2022-12-16T18:11:38.834Z,20.07
2022-12-16T18:15:01.233Z,19.53
2022-12-16T18:18:21.784Z,20.17
2022-12-16T18:21:42.313Z,19.40
2022-12-16T18:25:02.709Z,19.40
2022-12-16T18:28:23.354Z,21.00
2022-12-16T18:31:45.115Z,18.90
2022-12-16T18:35:05.581Z,18.03
2022-12-16T18:38:40.538Z,19.43
2022-12-16T18:42:02.946Z,18.27
2022-12-16T18:45:24.139Z,17.53
2022-12-16T18:48:45.851Z,18.40
2022-12-16T18:52:08.427Z,18.67
2022-12-16T18:55:29.099Z,19.83
2022-12-16T18:58:51.621Z,19.77
2022-12-16T19:02:12.851Z,18.90
2022-12-16T19:05:34.996Z,19.17
2022-12-16T19:08:55.634Z,19.27
2022-12-16T19:12:16.775Z,18.90
2022-12-16T19:15:45.639Z,19.50
2022-12-16T19:19:06.308Z,18.80
2022-12-16T19:22:28.237Z,18.83
2022-12-16T19:25:48.586Z,19.73
2022-12-16T19:29:09.235Z,18.87
2022-12-16T19:32:29.617Z,19.20
2022-12-16T19:35:50.055Z,18.50
2022-12-16T19:39:11.799Z,18.47
2022-12-16T19:42:32.713Z,17.70
2022-12-16T19:45:53.331Z,18.70
2022-12-16T19:49:17.290Z,18.30
2022-12-16T19:52:37.685Z,18.23
2022-12-16T19:55:59.612Z,19.17
2022-12-16T19:59:20.633Z,17.63
2022-12-16T20:02:41.215Z,18.00
2022-12-16T20:06:02.020Z,17.60
2022-12-16T20:09:22.606Z,17.57
2022-12-16T20:12:43.730Z,18.47
2022-12-16T20:16:04.560Z,17.77
2022-12-16T20:19:24.937Z,19.17
2022-12-16T20:22:45.335Z,18.40
2022-12-16T20:26:13.441Z,19.03
2022-12-16T20:29:35.395Z,18.23
2022-12-16T20:32:56.158Z,17.17
2022-12-16T20:36:17.850Z,18.43
2022-12-16T20:39:34.776Z,17.03
2022-12-16T20:42:55.551Z,17.37
2022-12-16T20:46:18.343Z,18.40
2022-12-16T20:49:39.567Z,18.80
2022-12-16T20:52:59.902Z,18.40
2022-12-16T20:56:20.838Z,17.67
2022-12-16T20:59:41.530Z,19.47
2022-12-16T21:03:03.392Z,18.07
2022-12-16T21:06:24.832Z,17.80
2022-12-16T21:09:45.303Z,18.23
2022-12-16T21:13:07.957Z,18.80
2022-12-16T21:16:28.881Z,18.17
2022-12-16T21:19:51.700Z,18.80
2022-12-16T21:23:20.448Z,16.47
2022-12-16T21:26:41.481Z,17.90
2022-12-16T21:30:02.036Z,17.30
2022-12-16T21:33:23.120Z,16.60
2022-12-16T21:36:45.036Z,19.27
2022-12-16T21:40:20.057Z,17.50
2022-12-16T21:43:40.718Z,16.87
2022-12-16T21:47:01.765Z,17.00
2022-12-16T21:50:23.044Z,16.70
2022-12-16T21:53:45.377Z,17.07
2022-12-16T21:57:06.347Z,16.73
2022-12-16T22:00:28.368Z,17.67
2022-12-16T22:03:53.156Z,16.47
2022-12-16T22:07:14.517Z,17.70
2022-12-16T22:10:36.794Z,16.93
2022-12-16T22:13:57.744Z,15.83
2022-12-16T22:17:18.174Z,16.90
2022-12-16T22:20:38.904Z,17.03
2022-12-16T22:23:59.508Z,16.70
2022-12-16T22:27:21.425Z,17.57
2022-12-16T22:30:42.435Z,17.50
2022-12-16T22:34:06.567Z,17.90
2022-12-16T22:37:27.246Z,17.63
2022-12-16T22:40:47.677Z,16.93
2022-12-16T22:44:09.359Z,18.10
2022-12-16T22:47:30.419Z,17.10
2022-12-16T22:50:50.836Z,17.20
2022-12-16T22:54:12.315Z,16.63
2022-12-16T22:57:29.429Z,17.43
2022-12-16T23:00:52.080Z,16.17
2022-12-16T23:04:15.431Z,16.63
2022-12-16T23:07:35.933Z,16.87
2022-12-16T23:10:56.424Z,16.80
2022-12-16T23:14:17.311Z,15.33
2022-12-16T23:17:39.059Z,17.13
2022-12-16T23:21:04.048Z,17.10
2022-12-16T23:24:25.426Z,16.03
2022-12-16T23:27:46.062Z,16.97
2022-12-16T23:31:10.632Z,17.20
2022-12-16T23:34:32.824Z,16.37
2022-12-16T23:37:53.453Z,16.10
2022-12-16T23:41:17.378Z,16.13
2022-12-16T23:44:37.774Z,17.23
2022-12-16T23:47:58.137Z,16.77
2022-12-16T23:51:19.927Z,16.57
2022-12-16T23:54:40.374Z,15.90
2022-12-16T23:58:00.793Z,16.37
